createdAt,value
2019-01-20T00:02:05.099Z,305.80
2019-01-20T00:03:19.818Z,305.66
2019-01-20T00:04:04.784Z,306.17
2019-01-20T00:06:17.397Z,305.01
2019-01-20T00:07:31.872Z,305.56
2019-01-20T00:10:15.484Z,305.26
2019-01-20T00:22:17.241Z,305.02
2019-01-20T00:23:17.425Z,305.18
2019-01-20T00:24:17.498Z,304.90
2019-01-20T00:29:28.942Z,304.77
2019-01-20T00:30:41.171Z,304.91
2019-01-20T00:33:04.116Z,305.08
2019-01-20T00:35:36.853Z,305.20
2019-01-20T00:37:49.099Z,303.94
2019-01-20T00:38:49.131Z,304.49
2019-01-20T00:39:49.089Z,304.57
2019-01-20T00:40:49.509Z,304.06
2019-01-20T00:41:49.001Z,304.57
2019-01-20T00:42:48.748Z,305.11
2019-01-20T00:43:48.659Z,304.73
2019-01-20T00:46:22.819Z,304.58
2019-01-20T00:47:23.491Z,305.03
2019-01-20T00:48:23.567Z,304.70
2019-01-20T00:49:25.528Z,304.80
2019-01-20T00:50:23.044Z,305.04
2019-01-20T00:51:23.333Z,305.04
2019-01-20T00:52:23.621Z,304.58
2019-01-20T00:53:39.552Z,305.02
2019-01-20T00:54:24.007Z,304.91
2019-01-20T00:55:24.063Z,304.76
2019-01-20T00:56:48.342Z,304.70
2019-01-20T00:57:22.725Z,305.20
2019-01-20T00:58:23.381Z,304.98
2019-01-20T00:59:26.857Z,305.13
2019-01-20T01:00:26.187Z,305.00
2019-01-20T01:01:24.299Z,304.67
2019-01-20T01:02:24.280Z,305.00
2019-01-20T01:03:22.727Z,305.10
2019-01-20T01:04:22.554Z,305.17
2019-01-20T01:06:47.411Z,305.25
2019-01-20T01:07:50.270Z,304.89
2019-01-20T01:08:47.464Z,305.11
2019-01-20T01:09:47.665Z,304.99
2019-01-20T01:10:47.644Z,304.82
2019-01-20T01:11:47.434Z,304.92
2019-01-20T01:12:57.104Z,304.99
2019-01-20T01:14:59.191Z,303.84
2019-01-20T01:19:07.434Z,304.77
2019-01-20T01:20:07.303Z,304.36
2019-01-20T01:21:07.795Z,304.57
2019-01-20T01:22:12.536Z,304.99
2019-01-20T01:23:09.131Z,304.74
2019-01-20T01:24:07.565Z,305.08
2019-01-20T01:25:07.293Z,305.16
2019-01-20T01:26:11.354Z,304.77
2019-01-20T01:27:21.537Z,304.76
2019-01-20T01:28:07.922Z,304.85
2019-01-20T01:29:08.516Z,304.92
2019-01-20T01:30:16.355Z,304.79
2019-01-20T01:31:07.891Z,304.97
2019-01-20T01:32:07.341Z,304.56
2019-01-20T01:33:07.349Z,304.50
2019-01-20T01:34:06.964Z,304.79
2019-01-20T01:35:07.050Z,304.60
2019-01-20T01:36:22.381Z,304.45
2019-01-20T01:41:39.552Z,304.58
2019-01-20T01:42:52.179Z,304.74
2019-01-20T01:43:41.222Z,304.29
2019-01-20T01:44:40.468Z,304.89
2019-01-20T01:45:41.234Z,304.47
2019-01-20T01:46:41.103Z,304.71
2019-01-20T01:47:55.330Z,304.50
2019-01-20T01:48:39.918Z,304.99
2019-01-20T01:51:09.069Z,303.95
2019-01-20T01:52:09.465Z,304.77
2019-01-20T01:53:10.625Z,305.34
2019-01-20T01:54:09.029Z,304.72
2019-01-20T01:55:09.510Z,304.92
2019-01-20T02:04:38.819Z,304.94
2019-01-20T02:05:56.930Z,305.39
2019-01-20T02:06:40.048Z,304.79
2019-01-20T02:08:17.733Z,304.81
2019-01-20T02:08:39.981Z,305.14
2019-01-20T02:09:40.049Z,304.86
2019-01-20T02:10:39.500Z,305.34
2019-01-20T02:11:46.595Z,304.42
2019-01-20T02:14:45.203Z,304.48
2019-01-20T02:15:51.846Z,304.43
2019-01-20T02:16:47.819Z,304.80
2019-01-20T02:17:50.870Z,305.44
2019-01-20T02:18:53.039Z,305.45
2019-01-20T02:19:45.936Z,304.93
2019-01-20T02:32:08.592Z,304.74
2019-01-20T02:36:33.456Z,304.32
2019-01-20T02:37:39.876Z,304.44
2019-01-20T02:38:34.960Z,304.29
2019-01-20T02:39:33.915Z,304.47
2019-01-20T02:40:33.830Z,304.22
2019-01-20T02:43:18.175Z,304.46
2019-01-20T02:45:52.423Z,304.40
2019-01-20T02:50:00.533Z,304.01
2019-01-20T02:56:01.047Z,303.15
2019-01-20T02:57:17.325Z,303.66
2019-01-20T02:59:29.760Z,303.70
2019-01-20T03:00:42.722Z,303.81
2019-01-20T03:12:05.929Z,304.03
2019-01-20T03:13:08.281Z,303.92
2019-01-20T03:14:13.976Z,303.81
2019-01-20T03:15:07.111Z,304.22
2019-01-20T03:16:06.280Z,303.48
2019-01-20T03:17:07.987Z,303.84
2019-01-20T03:18:06.052Z,303.93
2019-01-20T03:19:10.964Z,304.40
2019-01-20T03:20:05.880Z,304.04
2019-01-20T03:21:13.854Z,304.03
2019-01-20T03:22:07.388Z,303.85
2019-01-20T03:23:09.049Z,304.29
2019-01-20T03:25:49.824Z,304.32
2019-01-20T03:26:57.424Z,303.30
2019-01-20T03:27:49.683Z,304.25
2019-01-20T03:28:50.590Z,303.89
2019-01-20T03:29:50.540Z,304.40
2019-01-20T03:31:11.319Z,304.20
2019-01-20T03:31:49.726Z,303.95
2019-01-20T03:32:50.860Z,304.68
2019-01-20T03:33:58.318Z,304.52
2019-01-20T03:35:11.252Z,304.36
2019-01-20T03:35:51.320Z,303.76
2019-01-20T03:36:49.843Z,304.46
2019-01-20T03:37:49.641Z,303.83
2019-01-20T03:38:49.444Z,303.63
2019-01-20T03:39:53.196Z,304.21
2019-01-20T03:40:49.585Z,303.95
2019-01-20T03:41:51.410Z,304.04
2019-01-20T03:42:50.444Z,303.93
2019-01-20T03:43:51.427Z,303.98
2019-01-20T03:44:51.669Z,304.57
2019-01-20T03:46:14.421Z,303.74
2019-01-20T03:46:50.301Z,304.17
2019-01-20T03:50:56.324Z,304.46
2019-01-20T03:56:13.395Z,304.00
2019-01-20T03:59:29.248Z,304.13
2019-01-20T04:00:38.845Z,303.98
2019-01-20T04:04:52.478Z,303.85
2019-01-20T04:07:08.572Z,302.62
2019-01-20T04:08:08.634Z,304.14
2019-01-20T04:14:56.172Z,304.30
2019-01-20T04:17:34.340Z,304.53
2019-01-20T04:24:44.743Z,305.06
2019-01-20T04:25:40.272Z,305.10
2019-01-20T04:26:39.430Z,304.86
2019-01-20T04:27:39.318Z,304.95
2019-01-20T04:28:41.943Z,304.62
2019-01-20T04:29:42.824Z,304.66
2019-01-20T04:30:40.255Z,304.92
2019-01-20T04:31:39.909Z,305.06
2019-01-20T04:32:43.130Z,305.12
2019-01-20T04:33:42.085Z,304.54
2019-01-20T04:34:41.665Z,304.89
2019-01-20T04:35:41.716Z,305.03
2019-01-20T04:39:08.680Z,304.78
2019-01-20T04:43:50.988Z,304.40
2019-01-20T04:46:38.173Z,305.00
2019-01-20T04:47:39.902Z,305.01
2019-01-20T04:48:37.939Z,305.19
2019-01-20T04:49:38.919Z,304.93
2019-01-20T04:56:23.587Z,304.32
2019-01-20T04:57:28.152Z,305.23
2019-01-20T04:58:24.073Z,305.16
2019-01-20T04:59:24.572Z,305.23
2019-01-20T05:00:24.301Z,304.97
2019-01-20T05:01:25.396Z,304.87
2019-01-20T05:02:24.724Z,304.70
2019-01-20T05:05:19.172Z,305.02
2019-01-20T05:08:25.730Z,304.39
2019-01-20T05:09:35.868Z,304.70
2019-01-20T05:10:28.125Z,304.59
2019-01-20T05:13:17.250Z,304.78
2019-01-20T05:14:17.437Z,304.39
2019-01-20T05:15:17.296Z,304.78
2019-01-20T05:16:18.010Z,304.31
2019-01-20T05:17:17.376Z,304.86
2019-01-20T05:18:17.125Z,304.37
2019-01-20T05:19:17.341Z,304.96
2019-01-20T05:21:18.752Z,303.28
2019-01-20T05:26:02.429Z,304.40
2019-01-20T05:27:10.349Z,304.47
2019-01-20T05:41:05.896Z,304.07
2019-01-20T05:44:05.850Z,304.13
2019-01-20T05:55:07.696Z,304.62
2019-01-20T05:56:09.080Z,304.50
2019-01-20T05:58:50.641Z,304.45
2019-01-20T05:59:50.758Z,304.26
2019-01-20T06:02:23.242Z,304.43
2019-01-20T06:05:05.357Z,303.98
2019-01-20T06:07:36.192Z,304.16
2019-01-20T06:09:54.324Z,303.10
2019-01-20T06:10:54.794Z,304.64
2019-01-20T06:11:54.430Z,304.17
2019-01-20T06:15:33.627Z,303.98
2019-01-20T06:16:34.909Z,304.22
2019-01-20T06:17:35.798Z,303.97
2019-01-20T06:18:35.457Z,304.42
2019-01-20T06:19:56.544Z,304.40
2019-01-20T06:20:33.854Z,303.42
2019-01-20T06:26:51.646Z,303.85
2019-01-20T07:19:55.281Z,304.66
2019-01-20T07:20:55.345Z,305.11
2019-01-20T07:21:56.814Z,304.75
2019-01-20T07:22:55.278Z,304.99
2019-01-20T07:23:56.325Z,304.88
2019-01-20T07:25:11.893Z,304.47
2019-01-20T07:25:59.102Z,304.90
2019-01-20T07:26:58.065Z,304.90
2019-01-20T07:27:55.362Z,304.72
2019-01-20T07:29:07.110Z,304.85
2019-01-20T07:30:00.195Z,304.78
2019-01-20T07:36:30.445Z,304.71
2019-01-20T07:43:30.827Z,304.33
2019-01-20T07:45:51.915Z,304.17
2019-01-20T07:46:52.176Z,303.98
2019-01-20T07:49:12.672Z,303.88
2019-01-20T07:53:25.077Z,304.30
2019-01-20T07:56:04.154Z,305.09
2019-01-20T07:59:13.458Z,304.97
2019-01-20T08:00:14.287Z,305.21
2019-01-20T08:01:13.404Z,305.41
2019-01-20T08:02:13.402Z,305.64
2019-01-20T08:03:24.004Z,305.81
2019-01-20T08:04:13.505Z,305.07
2019-01-20T08:05:14.305Z,305.43
2019-01-20T08:08:53.742Z,305.67
2019-01-20T08:16:50.839Z,304.48
2019-01-20T08:17:48.706Z,304.23
2019-01-20T08:18:40.977Z,304.39
2019-01-20T08:19:41.015Z,304.62
2019-01-20T08:20:40.950Z,303.96
2019-01-20T08:21:41.221Z,304.11
2019-01-20T08:22:41.779Z,304.01
2019-01-20T08:23:55.772Z,304.27
2019-01-20T08:24:43.931Z,304.22
2019-01-20T08:25:58.438Z,304.16
2019-01-20T08:26:40.506Z,303.69
2019-01-20T08:27:51.725Z,303.92
2019-01-20T08:29:43.358Z,303.58
2019-01-20T08:30:43.584Z,304.27
2019-01-20T08:37:31.257Z,303.17
2019-01-20T08:38:32.179Z,303.66
2019-01-20T08:48:26.310Z,304.05
2019-01-20T08:50:59.858Z,303.86
2019-01-20T08:52:01.139Z,303.94
2019-01-20T08:53:01.137Z,303.88
2019-01-20T08:54:06.715Z,304.17
2019-01-20T08:55:37.308Z,303.95
2019-01-20T08:56:15.369Z,303.24
2019-01-20T09:09:31.444Z,304.08
2019-01-20T09:10:46.585Z,305.02
2019-01-20T09:11:31.663Z,306.29
2019-01-20T09:12:48.318Z,306.05
2019-01-20T09:13:39.230Z,305.27
2019-01-20T09:14:38.728Z,306.40
2019-01-20T09:15:31.601Z,305.73
2019-01-20T09:16:31.459Z,304.60
2019-01-20T09:17:31.499Z,304.32
2019-01-20T09:18:32.083Z,305.11
2019-01-20T09:19:32.957Z,304.64
2019-01-20T09:20:31.995Z,305.09
2019-01-20T09:21:32.431Z,306.57
2019-01-20T09:24:02.780Z,305.40
2019-01-20T09:25:14.241Z,304.09
2019-01-20T09:29:17.299Z,303.74
2019-01-20T09:30:19.361Z,304.29
2019-01-20T09:31:22.528Z,304.27
2019-01-20T09:32:16.334Z,304.58
2019-01-20T09:33:24.327Z,304.61
2019-01-20T09:34:29.531Z,304.72
2019-01-20T09:35:17.955Z,305.02
2019-01-20T09:36:32.436Z,305.35
2019-01-20T09:37:16.048Z,304.19
2019-01-20T09:38:15.799Z,304.24
2019-01-20T09:39:15.970Z,304.37
2019-01-20T09:41:31.163Z,304.35
2019-01-20T09:42:31.422Z,304.83
2019-01-20T09:43:31.073Z,304.86
2019-01-20T09:44:32.570Z,304.98
2019-01-20T09:45:31.191Z,305.27
2019-01-20T09:46:31.291Z,305.40
2019-01-20T09:47:32.612Z,305.55
2019-01-20T09:48:30.994Z,305.35
2019-01-20T09:49:32.195Z,305.11
2019-01-20T09:50:31.518Z,305.11
2019-01-20T09:51:30.816Z,305.62
2019-01-20T09:52:30.793Z,305.62
2019-01-20T09:53:33.586Z,306.69
2019-01-20T09:56:22.585Z,305.59
2019-01-20T09:57:22.467Z,305.37
2019-01-20T09:58:22.740Z,305.62
2019-01-20T09:59:23.687Z,305.67
2019-01-20T10:00:43.272Z,306.40
2019-01-20T10:01:22.184Z,305.48
2019-01-20T10:02:23.844Z,305.63
2019-01-20T10:05:13.891Z,305.21
2019-01-20T10:06:14.688Z,304.39
2019-01-20T10:07:14.650Z,305.67
2019-01-20T10:08:13.468Z,305.10
2019-01-20T10:09:14.006Z,304.85
2019-01-20T10:10:13.400Z,304.61
2019-01-20T10:11:13.335Z,304.58
2019-01-20T10:12:13.346Z,304.97
2019-01-20T10:13:13.289Z,304.21
2019-01-20T10:14:13.925Z,305.23
2019-01-20T10:15:13.420Z,304.99
2019-01-20T10:16:13.287Z,305.25
2019-01-20T10:17:13.278Z,304.24
2019-01-20T10:18:13.256Z,303.69
2019-01-20T10:19:13.211Z,304.17
2019-01-20T10:20:14.112Z,304.32
2019-01-20T10:21:13.239Z,304.77
2019-01-20T10:22:13.294Z,304.39
2019-01-20T10:23:13.202Z,304.99
2019-01-20T10:24:13.935Z,305.18
2019-01-20T10:25:15.198Z,305.15
2019-01-20T10:26:25.436Z,304.55
2019-01-20T10:36:55.498Z,304.35
2019-01-20T10:38:06.243Z,304.50
2019-01-20T10:38:55.398Z,304.38
2019-01-20T10:39:56.080Z,303.78
2019-01-20T10:41:09.454Z,303.73
2019-01-20T10:43:30.149Z,303.81
2019-01-20T10:49:55.792Z,302.90
2019-01-20T10:52:25.164Z,303.08
2019-01-20T10:53:25.247Z,303.06
2019-01-20T10:54:24.622Z,302.81
2019-01-20T10:55:30.983Z,303.11
2019-01-20T10:56:24.897Z,303.48
2019-01-20T11:04:30.110Z,302.78
2019-01-20T11:07:34.661Z,302.55
2019-01-20T11:08:33.479Z,302.55
2019-01-20T11:09:36.582Z,302.59
2019-01-20T11:10:43.148Z,302.72
2019-01-20T11:11:33.400Z,303.21
2019-01-20T11:12:33.569Z,303.17
2019-01-20T11:13:33.278Z,302.61
2019-01-20T11:14:32.841Z,302.17
2019-01-20T11:15:34.993Z,302.10
2019-01-20T11:16:33.793Z,303.22
2019-01-20T11:17:32.909Z,302.71
2019-01-20T11:18:32.841Z,301.77
2019-01-20T11:24:31.401Z,302.54
2019-01-20T11:25:31.011Z,302.55
2019-01-20T11:26:30.689Z,301.67
2019-01-20T11:27:31.785Z,301.46
2019-01-20T11:28:30.633Z,301.83
2019-01-20T11:29:30.650Z,302.56
2019-01-20T11:30:39.425Z,302.08
2019-01-20T11:31:30.941Z,302.51
2019-01-20T11:34:34.811Z,302.59
2019-01-20T11:38:20.089Z,302.88
2019-01-20T11:43:41.715Z,302.17
2019-01-20T11:46:36.172Z,303.30
2019-01-20T11:49:33.824Z,302.79
2019-01-20T11:50:33.727Z,303.10
2019-01-20T11:51:34.492Z,303.46
2019-01-20T11:52:33.845Z,303.92
2019-01-20T11:58:09.546Z,303.20
2019-01-20T11:59:24.336Z,303.18
2019-01-20T12:00:41.942Z,302.97
2019-01-20T12:04:21.664Z,306.83
2019-01-20T12:05:21.477Z,305.07
2019-01-20T12:06:21.696Z,303.86
2019-01-20T12:08:53.063Z,303.46
2019-01-20T12:09:53.002Z,303.20
2019-01-20T12:10:53.896Z,303.78
2019-01-20T12:11:53.074Z,302.51
2019-01-20T12:12:54.097Z,303.11
2019-01-20T12:13:53.091Z,302.92
2019-01-20T12:14:53.784Z,303.40
2019-01-20T12:15:52.862Z,301.97
2019-01-20T12:16:52.705Z,301.32
2019-01-20T12:17:52.980Z,301.67
2019-01-20T12:18:52.391Z,302.48
2019-01-20T12:19:52.408Z,301.88
2019-01-20T12:20:52.271Z,302.64
2019-01-20T12:21:52.304Z,302.44
2019-01-20T12:22:52.282Z,303.25
2019-01-20T12:23:52.240Z,302.03
2019-01-20T12:24:53.034Z,301.94
2019-01-20T12:25:52.707Z,301.16
2019-01-20T12:26:55.143Z,302.38
2019-01-20T12:27:52.399Z,301.60
2019-01-20T12:29:02.909Z,301.11
2019-01-20T12:29:53.679Z,301.48
2019-01-20T12:30:52.098Z,301.92
2019-01-20T12:31:52.198Z,300.45
2019-01-20T12:32:52.721Z,301.76
2019-01-20T12:33:53.061Z,301.09
2019-01-20T12:34:52.058Z,300.96
2019-01-20T12:35:52.957Z,301.88
2019-01-20T12:36:52.082Z,303.37
2019-01-20T12:37:51.973Z,303.55
2019-01-20T12:38:51.922Z,303.34
2019-01-20T12:39:51.992Z,304.26
2019-01-20T12:40:52.641Z,303.41
2019-01-20T12:41:52.197Z,304.10
2019-01-20T12:42:51.891Z,302.59
2019-01-20T12:43:52.089Z,302.61
2019-01-20T12:44:51.908Z,302.14
2019-01-20T12:45:51.914Z,302.45
2019-01-20T12:46:52.000Z,302.19
2019-01-20T12:50:35.234Z,300.39
2019-01-20T12:51:33.384Z,300.53
2019-01-20T12:52:34.178Z,300.15
2019-01-20T12:53:34.034Z,300.89
2019-01-20T12:54:42.621Z,300.50
2019-01-20T12:55:34.818Z,300.27
2019-01-20T12:56:33.312Z,301.84
2019-01-20T12:57:33.244Z,301.37
2019-01-20T12:58:33.265Z,302.25
2019-01-20T12:59:33.600Z,301.57
2019-01-20T13:00:33.868Z,301.60
2019-01-20T13:01:33.813Z,300.57
2019-01-20T13:02:32.714Z,301.17
2019-01-20T13:04:56.417Z,300.10
2019-01-20T13:05:51.110Z,300.84
2019-01-20T13:06:50.852Z,300.01
2019-01-20T13:07:50.758Z,299.40
2019-01-20T13:08:50.427Z,299.47
2019-01-20T13:09:50.926Z,300.10
2019-01-20T13:10:51.015Z,301.28
2019-01-20T13:11:58.201Z,302.08
2019-01-20T13:14:02.361Z,298.61
2019-01-20T13:17:39.152Z,297.97
2019-01-20T13:18:39.756Z,300.54
2019-01-20T13:19:38.851Z,299.60
2019-01-20T13:23:17.282Z,300.52
2019-01-20T13:24:32.346Z,299.98
2019-01-20T13:25:29.198Z,300.15
2019-01-20T13:27:29.590Z,298.85
2019-01-20T13:28:29.159Z,298.55
2019-01-20T13:29:29.040Z,299.72
2019-01-20T13:30:28.959Z,298.67
2019-01-20T13:31:30.280Z,299.89
2019-01-20T13:32:28.749Z,299.84
2019-01-20T13:34:49.360Z,299.39
2019-01-20T13:39:29.207Z,297.50
2019-01-20T13:40:36.799Z,298.43
2019-01-20T13:41:28.736Z,297.12
2019-01-20T13:42:28.696Z,297.77
2019-01-20T13:43:29.299Z,297.84
2019-01-20T13:44:28.757Z,298.28
2019-01-20T13:45:28.604Z,297.29
2019-01-20T13:46:30.326Z,297.78
2019-01-20T13:47:28.299Z,297.49
2019-01-20T13:48:27.869Z,297.98
2019-01-20T13:50:49.879Z,297.42
2019-01-20T13:51:50.065Z,297.52
2019-01-20T13:52:50.537Z,298.41
2019-01-20T13:54:45.609Z,298.01
2019-01-20T13:55:45.393Z,298.35
2019-01-20T13:56:47.254Z,299.32
2019-01-20T13:57:48.830Z,299.24
2019-01-20T13:58:56.081Z,298.90
2019-01-20T14:01:05.283Z,299.62
2019-01-20T14:03:43.675Z,300.97
2019-01-20T14:06:02.630Z,300.17
2019-01-20T14:07:14.199Z,300.98
2019-01-20T14:08:03.413Z,301.24
2019-01-20T14:09:02.583Z,302.00
2019-01-20T14:10:02.624Z,302.62
2019-01-20T14:11:03.086Z,302.14
2019-01-20T14:12:02.416Z,301.95
2019-01-20T14:13:02.153Z,301.36
2019-01-20T14:14:02.699Z,300.76
2019-01-20T14:15:02.361Z,301.53
2019-01-20T14:16:02.838Z,301.22
2019-01-20T14:17:02.706Z,301.59
2019-01-20T14:18:01.788Z,301.42
2019-01-20T14:19:01.789Z,301.51
2019-01-20T14:20:01.710Z,301.51
2019-01-20T14:21:01.725Z,301.03
2019-01-20T14:23:33.937Z,301.76
2019-01-20T14:24:34.443Z,303.44
2019-01-20T14:25:33.693Z,302.19
2019-01-20T14:26:34.151Z,303.09
2019-01-20T14:27:33.770Z,302.22
2019-01-20T14:28:46.509Z,301.58
2019-01-20T14:31:00.437Z,301.64
2019-01-20T14:34:39.545Z,299.80
2019-01-20T14:35:39.654Z,299.65
2019-01-20T14:36:39.713Z,300.23
2019-01-20T14:37:39.575Z,300.27
2019-01-20T14:38:39.221Z,300.19
2019-01-20T14:39:39.260Z,299.38
2019-01-20T14:40:38.892Z,299.84
2019-01-20T14:41:39.104Z,299.09
2019-01-20T14:42:39.071Z,299.57
2019-01-20T14:43:47.804Z,299.68
2019-01-20T14:44:49.491Z,299.83
2019-01-20T14:46:52.811Z,298.21
2019-01-20T14:48:03.752Z,299.85
2019-01-20T14:58:14.072Z,301.04
2019-01-20T14:59:15.191Z,300.76
2019-01-20T15:00:14.209Z,301.32
2019-01-20T15:02:24.951Z,300.37
2019-01-20T15:03:25.029Z,300.98
2019-01-20T15:04:24.375Z,304.20
2019-01-20T15:05:24.926Z,301.85
2019-01-20T15:06:23.850Z,302.13
2019-01-20T15:07:23.981Z,302.13
2019-01-20T15:08:23.858Z,302.25
2019-01-20T15:09:24.169Z,301.84
2019-01-20T15:10:23.533Z,302.27
2019-01-20T15:11:23.331Z,302.33
2019-01-20T15:12:23.360Z,302.93
2019-01-20T15:13:23.299Z,302.41
2019-01-20T15:14:23.287Z,301.89
2019-01-20T15:15:23.371Z,302.02
2019-01-20T15:16:57.189Z,301.51
2019-01-20T15:20:19.307Z,302.06
2019-01-20T15:28:26.049Z,302.17
2019-01-20T15:31:32.696Z,302.12
2019-01-20T15:34:22.323Z,302.12
2019-01-20T15:35:22.318Z,302.86
2019-01-20T15:36:22.269Z,302.94
2019-01-20T15:37:22.008Z,303.14
2019-01-20T15:38:22.293Z,303.37
2019-01-20T15:39:22.405Z,304.43
2019-01-20T15:40:21.634Z,303.64
2019-01-20T15:42:37.294Z,302.45
2019-01-20T15:43:36.225Z,304.15
2019-01-20T15:44:36.228Z,303.81
2019-01-20T15:45:38.116Z,303.85
2019-01-20T15:46:35.754Z,303.49
2019-01-20T15:47:37.074Z,303.86
2019-01-20T15:48:35.787Z,303.62
2019-01-20T15:49:35.598Z,303.62
2019-01-20T15:50:36.486Z,304.09
2019-01-20T15:53:59.054Z,305.58
2019-01-20T15:54:37.886Z,305.58
2019-01-20T15:58:16.962Z,304.81
2019-01-20T15:59:14.120Z,304.57
2019-01-20T16:00:14.153Z,304.02
2019-01-20T16:01:14.062Z,303.41
2019-01-20T16:03:33.103Z,303.38
2019-01-20T16:04:33.691Z,303.18
2019-01-20T16:07:46.935Z,303.85
2019-01-20T16:08:47.216Z,303.89
2019-01-20T16:09:46.927Z,304.13
2019-01-20T16:10:46.351Z,304.80
2019-01-20T16:12:14.854Z,303.85
2019-01-20T16:12:46.797Z,303.42
2019-01-20T16:13:46.570Z,303.82
2019-01-20T16:16:15.282Z,303.63
2019-01-20T16:17:15.772Z,303.52
2019-01-20T16:18:15.163Z,303.61
2019-01-20T16:19:23.771Z,303.91
2019-01-20T16:20:14.571Z,304.10
2019-01-20T16:21:15.902Z,303.68
2019-01-20T16:22:14.500Z,303.87
2019-01-20T16:23:14.386Z,303.65
2019-01-20T16:24:14.792Z,303.71
2019-01-20T16:25:17.037Z,303.95
2019-01-20T16:26:14.891Z,303.72
2019-01-20T16:40:18.651Z,303.41
2019-01-20T16:49:46.780Z,304.02
2019-01-20T16:55:22.410Z,304.54
2019-01-20T16:58:42.766Z,304.27
2019-01-20T17:05:07.581Z,303.60
2019-01-20T17:06:08.301Z,303.35
2019-01-20T17:07:08.058Z,303.83
2019-01-20T17:08:07.616Z,303.87
2019-01-20T17:09:08.150Z,304.05
2019-01-20T17:10:24.586Z,303.72
2019-01-20T17:22:34.236Z,304.10
2019-01-20T17:26:26.505Z,303.05
2019-01-20T17:27:26.405Z,303.38
2019-01-20T17:28:26.503Z,302.65
2019-01-20T17:29:26.826Z,303.02
2019-01-20T17:30:26.502Z,303.10
2019-01-20T17:31:28.581Z,302.96
2019-01-20T17:32:26.131Z,302.98
2019-01-20T17:33:26.186Z,302.44
2019-01-20T17:34:26.643Z,302.96
2019-01-20T17:35:25.581Z,303.10
2019-01-20T17:36:26.641Z,302.95
2019-01-20T17:37:25.458Z,302.93
2019-01-20T17:38:26.262Z,302.84
2019-01-20T17:39:26.235Z,303.38
2019-01-20T17:40:25.871Z,303.19
2019-01-20T17:41:26.281Z,302.80
2019-01-20T17:42:25.589Z,303.01
2019-01-20T17:43:25.577Z,303.21
2019-01-20T17:44:25.733Z,302.91
2019-01-20T17:47:53.583Z,302.54
2019-01-20T17:49:00.960Z,302.43
2019-01-20T17:51:16.190Z,303.58
2019-01-20T17:52:17.529Z,303.83
2019-01-20T17:53:16.584Z,304.01
2019-01-20T17:54:16.557Z,304.08
2019-01-20T17:55:15.940Z,303.64
2019-01-20T17:56:16.331Z,303.88
2019-01-20T17:57:15.911Z,303.43
2019-01-20T17:58:15.693Z,303.35
2019-01-20T17:59:15.698Z,303.50
2019-01-20T18:00:15.773Z,303.65
2019-01-20T18:01:15.619Z,303.65
2019-01-20T18:02:17.030Z,303.83
2019-01-20T18:03:15.636Z,303.49
2019-01-20T18:04:15.641Z,303.55
2019-01-20T18:05:15.652Z,303.07
2019-01-20T18:06:15.584Z,303.09
2019-01-20T18:07:16.241Z,303.32
2019-01-20T18:08:15.697Z,302.70
2019-01-20T18:09:15.676Z,303.38
2019-01-20T18:10:15.676Z,303.25
2019-01-20T18:11:15.585Z,303.26
2019-01-20T18:12:15.550Z,302.89
2019-01-20T18:13:15.505Z,303.24
2019-01-20T18:14:15.520Z,303.08
2019-01-20T18:15:15.783Z,303.14
2019-01-20T18:16:15.535Z,303.05
2019-01-20T18:17:15.645Z,303.44
2019-01-20T18:18:15.569Z,303.45
2019-01-20T18:19:25.307Z,303.35
2019-01-20T18:21:28.054Z,302.27
2019-01-20T18:22:27.936Z,303.02
2019-01-20T18:23:27.733Z,303.60
2019-01-20T18:24:28.014Z,303.79
2019-01-20T18:25:27.192Z,302.68
2019-01-20T18:26:28.584Z,303.44
2019-01-20T18:27:27.115Z,303.90
2019-01-20T18:28:27.082Z,303.10
2019-01-20T18:29:27.074Z,303.91
2019-01-20T18:30:27.047Z,303.97
2019-01-20T18:31:27.005Z,303.62
2019-01-20T18:32:27.002Z,303.98
2019-01-20T18:33:26.985Z,303.80
2019-01-20T18:34:27.943Z,303.17
2019-01-20T18:35:27.031Z,303.17
2019-01-20T18:37:42.971Z,302.87
2019-01-20T18:38:42.641Z,303.60
2019-01-20T18:39:42.337Z,303.88
2019-01-20T18:40:42.171Z,303.76
2019-01-20T18:41:42.478Z,303.17
2019-01-20T18:42:41.900Z,303.37
2019-01-20T18:43:41.937Z,303.39
2019-01-20T18:44:42.038Z,303.49
2019-01-20T18:45:44.053Z,303.39
2019-01-20T18:46:42.605Z,303.62
2019-01-20T18:47:42.917Z,303.79
2019-01-20T18:48:41.958Z,304.05
2019-01-20T18:49:42.805Z,303.44
2019-01-20T18:50:42.046Z,303.33
2019-01-20T18:51:44.802Z,303.75
2019-01-20T18:52:53.505Z,303.60
2019-01-20T18:53:53.650Z,303.64
2019-01-20T19:01:38.009Z,303.51
2019-01-20T19:02:37.717Z,303.95
2019-01-20T19:03:41.837Z,303.45
2019-01-20T19:04:38.355Z,303.44
2019-01-20T19:05:43.056Z,304.11
2019-01-20T19:06:37.572Z,303.73
2019-01-20T19:07:37.581Z,303.98
2019-01-20T19:08:39.435Z,304.04
2019-01-20T19:11:07.354Z,303.96
2019-01-20T19:12:14.248Z,304.37
2019-01-20T19:29:56.524Z,303.60
2019-01-20T19:54:19.792Z,304.31
2019-01-20T19:56:38.851Z,302.78
2019-01-20T19:57:40.272Z,303.29
2019-01-20T19:58:41.046Z,302.93
2019-01-20T20:02:13.480Z,303.23
2019-01-20T20:06:29.329Z,302.98
2019-01-20T20:51:34.460Z,302.40
2019-01-20T20:52:34.433Z,302.97
2019-01-20T20:53:35.117Z,302.38
2019-01-20T20:54:37.889Z,302.79
2019-01-20T20:55:49.822Z,302.59
2019-01-20T20:56:35.119Z,302.91
2019-01-20T20:57:34.347Z,302.83
2019-01-20T20:59:53.506Z,302.20
2019-01-20T21:00:54.518Z,302.92
2019-01-20T21:03:24.485Z,302.54
2019-01-20T21:09:47.219Z,302.57
2019-01-20T21:12:26.338Z,302.10
2019-01-20T21:15:21.930Z,302.76
2019-01-20T21:17:38.251Z,302.40
2019-01-20T21:18:37.136Z,303.26
2019-01-20T21:19:37.059Z,302.90
2019-01-20T21:20:37.039Z,302.71
2019-01-20T21:21:57.790Z,302.73
2019-01-20T21:23:54.631Z,301.83
2019-01-20T21:24:54.476Z,302.47
2019-01-20T21:25:54.674Z,302.25
2019-01-20T21:26:54.547Z,302.40
2019-01-20T21:27:54.350Z,302.55
2019-01-20T21:28:54.552Z,302.66
2019-01-20T21:29:54.558Z,302.07
2019-01-20T21:32:35.949Z,302.89
2019-01-20T21:33:50.621Z,301.81
2019-01-20T21:35:48.871Z,301.26
2019-01-20T21:38:06.575Z,301.42
2019-01-20T21:39:00.996Z,302.57
2019-01-20T21:39:59.987Z,302.06
2019-01-20T21:42:19.405Z,301.82
2019-01-20T21:43:18.770Z,302.47
2019-01-20T21:44:19.616Z,302.43
2019-01-20T21:45:18.906Z,302.52
2019-01-20T21:46:19.907Z,302.49
2019-01-20T21:47:19.993Z,302.53
2019-01-20T21:48:21.271Z,302.40
2019-01-20T21:49:18.017Z,302.40
2019-01-20T21:50:17.961Z,302.66
2019-01-20T21:51:18.067Z,302.62
2019-01-20T21:53:59.205Z,302.57
2019-01-20T21:57:39.214Z,302.86
2019-01-20T22:03:03.578Z,302.39
2019-01-20T22:04:03.539Z,302.48
2019-01-20T22:05:06.625Z,301.85
2019-01-20T22:06:02.844Z,302.25
2019-01-20T22:07:02.997Z,302.55
2019-01-20T22:08:03.212Z,302.11
2019-01-20T22:09:03.645Z,302.61
2019-01-20T22:10:03.174Z,302.43
2019-01-20T22:11:02.976Z,302.42
2019-01-20T22:12:05.025Z,302.66
2019-01-20T22:13:03.053Z,302.40
2019-01-20T22:15:23.460Z,301.93
2019-01-20T22:17:48.560Z,302.59
2019-01-20T22:18:48.440Z,302.34
2019-01-20T22:19:49.137Z,302.48
2019-01-20T22:20:50.501Z,302.66
2019-01-20T22:21:49.705Z,301.96
2019-01-20T22:24:35.991Z,302.22
2019-01-20T22:28:05.586Z,302.32
2019-01-20T22:37:45.131Z,302.24
2019-01-20T23:16:07.977Z,303.21
2019-01-20T23:17:07.657Z,304.04
2019-01-20T23:18:03.681Z,303.66
2019-01-20T23:27:33.645Z,302.79
2019-01-20T23:28:40.175Z,303.10
2019-01-20T23:31:16.268Z,302.86
2019-01-20T23:32:16.958Z,302.83
2019-01-20T23:40:46.083Z,302.90
2019-01-20T23:41:55.307Z,302.65
2019-01-20T23:42:46.874Z,302.88
